Time;durP1;ratioP1;P1;durP2;ratioP2;P2;SDS_P1;SDS_P2;PMS_P1;PMS_P2;Temp;Humidity;BMP_temperature;BMP_pressure;BME280_temperature;BME280_humidity;BME280_pressure;Samples;Min_cycle;Max_cycle;Signal;HPM_P1;HPM_P2
2022/11/15 00:01:43;;;;;;;23.08;15.82;;;7.60;99.90;;;;;;5025479;28;20088;-68
2022/11/15 00:04:10;;;;;;;26.73;16.33;;;7.60;99.90;;;;;;5034163;28;20029;-68
2022/11/15 00:06:35;;;;;;;27.10;15.45;;;7.60;99.90;;;;;;5033245;28;20405;-68
2022/11/15 00:09:01;;;;;;;24.60;15.73;;;7.70;99.90;;;;;;5027440;28;20025;-68
2022/11/15 00:11:27;;;;;;;24.45;15.45;;;7.70;99.90;;;;;;5032734;28;20049;-68
2022/11/15 00:13:57;;;;;;;24.88;14.77;;;7.70;99.90;;;;;;5033910;28;20060;-68
2022/11/15 00:16:23;;;;;;;25.50;15.32;;;7.70;99.90;;;;;;5033232;28;20041;-68
2022/11/15 00:18:49;;;;;;;26.13;16.05;;;7.80;99.90;;;;;;5031996;28;20372;-68
2022/11/15 00:21:16;;;;;;;26.83;15.60;;;7.80;99.90;;;;;;5033120;28;20048;-68
2022/11/15 00:23:42;;;;;;;27.40;16.05;;;7.90;99.90;;;;;;5033777;28;20529;-68
2022/11/15 00:26:12;;;;;;;24.13;14.65;;;7.90;99.90;;;;;;5029364;28;20041;-68
2022/11/15 00:28:37;;;;;;;27.73;15.85;;;7.90;99.90;;;;;;5026204;28;20072;-68
2022/11/15 00:31:05;;;;;;;26.80;15.50;;;7.90;99.90;;;;;;5030824;28;20132;-68
2022/11/15 00:33:31;;;;;;;26.08;15.75;;;7.90;99.90;;;;;;5031419;28;20077;-68
2022/11/15 00:36:09;;;;;;;26.45;15.38;;;8.00;99.90;;;;;;5033540;28;20171;-68
2022/11/15 00:38:37;;;;;;;26.85;17.25;;;8.00;99.90;;;;;;5032471;28;20407;-68
2022/11/15 00:41:04;;;;;;;26.73;16.67;;;8.00;99.90;;;;;;5033534;28;20044;-68
2022/11/15 00:43:30;;;;;;;24.63;15.43;;;8.10;99.90;;;;;;5033162;28;20505;-68
2022/11/15 00:45:55;;;;;;;28.58;16.42;;;8.00;99.90;;;;;;5031081;28;20065;-68
2022/11/15 00:48:21;;;;;;;28.25;15.60;;;8.00;99.90;;;;;;5030545;28;20038;-68
2022/11/15 00:50:48;;;;;;;25.35;15.88;;;8.00;99.90;;;;;;5030672;28;20052;-68
2022/11/15 00:53:13;;;;;;;28.92;16.00;;;8.10;99.90;;;;;;5033159;28;20038;-68
2022/11/15 00:55:39;;;;;;;28.25;15.93;;;8.10;99.90;;;;;;5033556;28;20048;-68
2022/11/15 00:58:05;;;;;;;27.15;16.38;;;8.10;99.90;;;;;;5030809;28;20047;-68
2022/11/15 01:00:30;;;;;;;26.92;15.15;;;8.10;99.90;;;;;;5029612;28;20038;-68
2022/11/15 01:02:56;;;;;;;27.48;15.82;;;8.10;99.90;;;;;;5031894;28;20033;-68
2022/11/15 01:05:22;;;;;;;27.48;15.65;;;8.20;99.90;;;;;;5032940;28;20041;-68
2022/11/15 01:07:52;;;;;;;28.38;15.65;;;8.20;99.90;;;;;;5031247;28;20120;-68
2022/11/15 01:10:18;;;;;;;29.25;17.13;;;8.20;99.90;;;;;;5031181;28;20116;-68
2022/11/15 01:12:43;;;;;;;30.42;17.10;;;8.20;99.90;;;;;;5023765;28;20126;-68
2022/11/15 01:15:09;;;;;;;29.05;16.40;;;8.20;99.90;;;;;;5024037;28;20399;-68
2022/11/15 01:17:35;;;;;;;30.83;16.92;;;8.20;99.90;;;;;;5032777;28;20497;-68
2022/11/15 01:20:01;;;;;;;29.98;16.92;;;8.20;99.90;;;;;;5031428;28;20060;-68
2022/11/15 01:22:26;;;;;;;29.75;16.10;;;8.20;99.90;;;;;;5032796;28;20037;-68
2022/11/15 01:24:52;;;;;;;28.95;16.75;;;8.20;99.90;;;;;;5033468;28;20048;-68
2022/11/15 01:27:17;;;;;;;30.33;16.10;;;8.20;99.90;;;;;;5031352;28;20081;-68
2022/11/15 01:29:43;;;;;;;26.67;15.52;;;8.30;99.90;;;;;;5031056;28;20033;-68
2022/11/15 01:32:09;;;;;;;28.08;16.10;;;8.30;99.90;;;;;;5031398;28;20033;-68
2022/11/15 01:34:34;;;;;;;25.23;15.63;;;8.30;99.90;;;;;;5031059;28;20108;-68
2022/11/15 01:37:00;;;;;;;27.90;15.02;;;8.30;99.90;;;;;;5031378;28;20045;-68
2022/11/15 01:39:26;;;;;;;28.98;16.05;;;8.30;99.90;;;;;;5031430;28;20088;-68
2022/11/15 01:41:52;;;;;;;26.85;15.85;;;8.30;99.90;;;;;;5032072;28;20509;-68
2022/11/15 01:44:47;;;;;;;29.50;16.25;;;8.30;99.90;;;;;;5031358;28;20155;-68
2022/11/15 01:47:23;;;;;;;26.40;15.43;;;8.30;99.90;;;;;;5030563;28;20041;-68
2022/11/15 01:50:00;;;;;;;27.05;15.60;;;8.30;99.90;;;;;;5028279;28;20087;-68
2022/11/15 01:52:28;;;;;;;26.58;14.52;;;8.30;99.90;;;;;;5031116;28;20049;-68
2022/11/15 01:55:22;;;;;;;26.15;15.65;;;8.30;99.90;;;;;;5032157;28;20037;-68
2022/11/15 01:57:52;;;;;;;30.25;15.88;;;8.30;99.90;;;;;;5022822;28;20056;-68
2022/11/15 02:00:18;;;;;;;27.85;15.88;;;8.30;99.90;;;;;;5030655;28;20554;-68
2022/11/15 02:02:44;;;;;;;29.95;16.45;;;8.30;99.90;;;;;;5013639;28;20120;-68
2022/11/15 02:05:10;;;;;;;32.42;16.27;;;8.30;99.90;;;;;;5020261;28;20128;-68
2022/11/15 02:07:36;;;;;;;30.05;15.73;;;8.30;99.90;;;;;;5029435;28;20034;-68
2022/11/15 02:10:11;;;;;;;29.10;15.70;;;8.30;99.90;;;;;;5013567;28;20045;-68
2022/11/15 02:12:37;;;;;;;29.85;16.67;;;8.30;99.90;;;;;;5029795;28;20116;-68
2022/11/15 02:15:05;;;;;;;29.75;16.20;;;8.40;99.90;;;;;;5031354;28;20112;-68
2022/11/15 02:18:04;;;;;;;31.63;16.33;;;8.40;99.90;;;;;;5030640;28;20080;-68
2022/11/15 02:20:52;;;;;;;30.80;16.58;;;8.40;99.90;;;;;;5009043;28;20505;-68
2022/11/15 02:23:48;;;;;;;30.52;15.90;;;8.40;99.90;;;;;;5027334;28;20059;-68
2022/11/15 02:26:25;;;;;;;34.75;16.80;;;8.40;99.90;;;;;;5014661;28;20590;-68
2022/11/15 02:29:28;;;;;;;39.95;17.52;;;8.40;99.90;;;;;;5030133;28;20040;-68
2022/11/15 02:32:28;;;;;;;38.75;18.02;;;8.50;99.90;;;;;;4980735;28;20046;-68
2022/11/15 02:35:01;;;;;;;36.50;18.27;;;8.50;99.90;;;;;;5019784;28;20120;-68
2022/11/15 02:37:35;;;;;;;37.33;18.42;;;8.50;99.90;;;;;;5031009;28;20050;-68
2022/11/15 02:40:01;;;;;;;35.80;17.55;;;8.50;99.90;;;;;;5022460;28;20117;-68
2022/11/15 02:45:22;;;;;;;37.10;18.92;;;8.50;99.90;;;;;;5031328;28;20053;-68
2022/11/15 02:47:51;;;;;;;41.47;19.38;;;8.60;99.90;;;;;;5028922;28;20140;-68
2022/11/15 02:50:20;;;;;;;47.35;20.58;;;8.60;99.90;;;;;;5028327;28;20303;-68
2022/11/15 02:52:48;;;;;;;49.85;20.42;;;8.60;99.90;;;;;;5031011;28;20034;-68
2022/11/15 02:55:26;;;;;;;47.55;21.05;;;8.60;99.90;;;;;;5029471;28;20041;-68
2022/11/15 02:58:02;;;;;;;46.70;21.42;;;8.60;99.90;;;;;;5030152;28;20037;-68
2022/11/15 03:00:35;;;;;;;41.08;20.73;;;8.70;99.90;;;;;;5028832;28;20088;-68
2022/11/15 03:03:21;;;;;;;42.53;20.55;;;8.70;99.90;;;;;;5014952;28;20033;-68
2022/11/15 03:06:02;;;;;;;45.35;20.88;;;8.70;99.90;;;;;;5027208;28;20046;-68
2022/11/15 03:08:32;;;;;;;45.50;20.75;;;8.70;99.90;;;;;;5031745;28;20125;-68
2022/11/15 03:11:08;;;;;;;43.60;20.80;;;8.70;99.90;;;;;;5022762;28;20064;-69
2022/11/15 03:13:56;;;;;;;49.10;21.85;;;8.70;99.90;;;;;;5028310;28;20042;-68
2022/11/15 03:16:47;;;;;;;48.55;21.60;;;8.80;99.90;;;;;;5029780;28;20033;-68
2022/11/15 03:19:32;;;;;;;52.67;22.60;;;8.80;99.90;;;;;;5026586;28;20081;-68
2022/11/15 03:22:00;;;;;;;47.83;22.10;;;8.80;99.90;;;;;;5027423;28;20038;-68
2022/11/15 03:24:28;;;;;;;45.47;22.48;;;8.80;99.90;;;;;;5011828;28;20422;-68
2022/11/15 03:26:56;;;;;;;47.40;23.45;;;8.80;99.90;;;;;;5040749;22;20041;-63
2022/11/15 03:29:31;;;;;;;48.45;22.40;;;8.80;99.90;;;;;;5030292;28;20042;-63
2022/11/15 03:32:05;;;;;;;46.67;23.10;;;8.90;99.90;;;;;;5028112;28;20522;-62
2022/11/15 03:35:05;;;;;;;52.35;23.10;;;8.90;99.90;;;;;;4996532;28;20041;-63
2022/11/15 03:37:44;;;;;;;44.45;22.50;;;8.90;99.90;;;;;;5038270;28;20112;-63
2022/11/15 03:40:10;;;;;;;48.22;23.17;;;8.90;99.90;;;;;;5043967;28;20033;-63
2022/11/15 03:43:06;;;;;;;50.85;23.80;;;8.90;99.90;;;;;;5046850;28;20086;-62
2022/11/15 03:45:40;;;;;;;52.28;24.83;;;8.90;99.90;;;;;;5018968;28;20056;-63
2022/11/15 03:48:10;;;;;;;49.95;24.27;;;9.00;99.90;;;;;;5053029;28;20061;-63
2022/11/15 03:50:36;;;;;;;57.33;25.92;;;8.90;99.90;;;;;;5046621;28;20098;-63
2022/11/15 03:53:02;;;;;;;52.05;24.90;;;9.00;99.90;;;;;;5037111;28;20149;-63
2022/11/15 03:55:28;;;;;;;49.58;24.65;;;9.00;99.90;;;;;;5032818;28;20048;-63
2022/11/15 03:57:58;;;;;;;49.53;25.95;;;9.10;99.90;;;;;;5032309;28;20045;-63
2022/11/15 04:00:24;;;;;;;51.55;24.30;;;9.10;99.90;;;;;;5043804;28;20071;-63
2022/11/15 04:02:50;;;;;;;48.53;24.70;;;9.10;99.90;;;;;;5052861;28;20061;-63
2022/11/15 04:05:16;;;;;;;58.10;25.73;;;9.10;99.90;;;;;;5049606;28;20110;-63
2022/11/15 04:07:41;;;;;;;56.08;25.08;;;9.20;99.90;;;;;;5048444;28;20056;-63
2022/11/15 04:10:09;;;;;;;54.63;26.60;;;9.10;99.90;;;;;;5043803;28;20037;-63
2022/11/15 04:12:46;;;;;;;56.65;26.35;;;9.20;99.90;;;;;;5036774;28;20065;-62
2022/11/15 04:15:14;;;;;;;57.80;26.60;;;9.20;99.90;;;;;;5039589;28;20383;-63
2022/11/15 04:17:46;;;;;;;61.20;27.70;;;9.20;99.90;;;;;;5035431;28;20045;-63
2022/11/15 04:26:14;;;;;;;63.42;29.60;;;9.30;99.90;;;;;;5051576;28;20586;-62
2022/11/15 04:31:24;;;;;;;64.53;28.65;;;9.30;99.90;;;;;;5048285;28;20457;-63
2022/11/15 04:33:49;;;;;;;61.65;27.17;;;9.30;99.90;;;;;;5049781;28;20116;-64
2022/11/15 04:38:59;;;;;;;66.38;28.70;;;9.40;99.90;;;;;;5048481;28;20044;-63
2022/11/15 04:41:25;;;;;;;57.15;28.92;;;9.40;99.90;;;;;;5047865;28;20036;-63
2022/11/15 04:43:51;;;;;;;57.05;28.23;;;9.40;99.90;;;;;;5046799;28;20277;-63
2022/11/15 04:46:16;;;;;;;60.75;28.50;;;9.40;99.90;;;;;;5041694;28;20045;-63
2022/11/15 04:48:42;;;;;;;64.38;29.02;;;9.50;99.90;;;;;;5041345;28;20033;-63
2022/11/15 04:51:08;;;;;;;62.88;28.27;;;9.50;99.90;;;;;;5040646;28;20406;-63
2022/11/15 04:53:33;;;;;;;61.72;29.58;;;9.50;99.90;;;;;;5048178;28;20060;-63
2022/11/15 04:55:59;;;;;;;57.70;27.65;;;9.60;99.90;;;;;;5042767;28;20044;-63
2022/11/15 04:58:25;;;;;;;58.72;28.23;;;9.60;99.90;;;;;;5042683;28;20056;-63
2022/11/15 05:00:50;;;;;;;65.97;28.13;;;9.70;99.90;;;;;;5026053;28;20043;-63
2022/11/15 05:06:00;;;;;;;61.17;28.10;;;9.70;99.90;;;;;;5045643;28;20041;-63
2022/11/15 05:08:26;;;;;;;62.65;27.80;;;9.80;99.90;;;;;;5049795;28;20495;-63
2022/11/15 05:10:51;;;;;;;60.70;26.95;;;9.70;99.90;;;;;;5044948;28;20025;-63
2022/11/15 05:13:17;;;;;;;57.35;28.05;;;9.70;99.90;;;;;;5050216;28;20124;-63
2022/11/15 05:15:43;;;;;;;56.17;27.08;;;9.80;99.90;;;;;;5048413;28;20402;-63
2022/11/15 05:18:09;;;;;;;59.88;27.42;;;9.80;99.90;;;;;;5045294;28;20160;-63
2022/11/15 05:20:35;;;;;;;58.13;27.67;;;9.80;99.90;;;;;;5045860;28;20064;-63
2022/11/15 05:23:00;;;;;;;55.03;26.75;;;9.90;99.90;;;;;;5046323;28;20029;-63
2022/11/15 05:25:26;;;;;;;55.75;25.58;;;9.90;99.90;;;;;;5042721;28;20048;-63
2022/11/15 05:27:52;;;;;;;54.22;25.02;;;9.90;99.90;;;;;;5046215;28;20505;-63
2022/11/15 05:30:17;;;;;;;55.08;25.30;;;9.90;99.90;;;;;;5043898;28;20064;-63
2022/11/15 05:32:44;;;;;;;50.42;25.38;;;9.90;99.90;;;;;;5045019;28;20033;-63
2022/11/15 05:35:17;;;;;;;55.00;24.20;;;9.90;99.90;;;;;;5041532;28;20144;-63
2022/11/15 05:37:43;;;;;;;50.92;24.45;;;9.90;99.90;;;;;;5045574;28;20105;-63
2022/11/15 05:40:08;;;;;;;51.50;24.45;;;9.90;99.90;;;;;;5045421;28;20044;-63
2022/11/15 05:42:34;;;;;;;50.70;23.90;;;10.00;99.90;;;;;;5028201;28;20044;-63
2022/11/15 05:45:02;;;;;;;45.08;24.17;;;10.00;99.90;;;;;;5042551;28;20036;-63
2022/11/15 05:47:30;;;;;;;44.40;22.55;;;10.10;99.90;;;;;;5039300;28;20038;-63
2022/11/15 05:49:57;;;;;;;43.15;22.17;;;10.10;99.90;;;;;;5042483;28;20032;-63
2022/11/15 05:52:27;;;;;;;45.83;23.20;;;10.10;99.90;;;;;;5050301;28;20047;-63
2022/11/15 05:54:55;;;;;;;45.45;23.75;;;10.20;99.90;;;;;;5042638;28;20045;-63
2022/11/15 05:57:21;;;;;;;43.40;22.92;;;10.20;99.90;;;;;;5044803;28;20060;-63
2022/11/15 05:59:46;;;;;;;46.38;22.05;;;10.20;99.90;;;;;;5044328;28;20491;-63
2022/11/15 06:02:12;;;;;;;49.10;22.40;;;10.30;99.90;;;;;;5039831;28;20057;-63
2022/11/15 06:04:38;;;;;;;47.47;22.98;;;10.30;99.90;;;;;;5044488;28;20474;-63
2022/11/15 06:07:03;;;;;;;46.47;22.55;;;10.30;99.90;;;;;;5043536;28;20774;-63
2022/11/15 06:09:29;;;;;;;45.42;22.55;;;10.40;99.90;;;;;;5028166;28;20045;-63
2022/11/15 06:11:55;;;;;;;41.00;21.63;;;10.40;99.90;;;;;;5050213;28;20113;-63
2022/11/15 06:14:20;;;;;;;46.65;21.55;;;10.40;99.90;;;;;;5041606;28;20037;-63
2022/11/15 06:16:46;;;;;;;39.75;21.45;;;10.40;99.90;;;;;;5049451;28;20670;-64
2022/11/15 06:19:11;;;;;;;44.00;20.85;;;10.50;99.90;;;;;;5051157;28;20171;-63
2022/11/15 06:21:37;;;;;;;42.78;21.17;;;10.50;99.90;;;;;;5051214;28;20047;-63
2022/11/15 06:24:03;;;;;;;45.20;20.85;;;10.50;99.90;;;;;;5050175;28;20036;-63
2022/11/15 06:26:28;;;;;;;42.45;21.00;;;10.50;99.90;;;;;;5048829;28;20486;-63
2022/11/15 06:28:54;;;;;;;41.28;20.13;;;10.50;99.90;;;;;;5045300;28;20075;-63
2022/11/15 06:31:20;;;;;;;40.03;20.17;;;10.50;99.90;;;;;;5048622;28;20033;-63
2022/11/15 06:33:46;;;;;;;38.42;20.08;;;10.60;99.90;;;;;;5051797;28;20654;-63
2022/11/15 06:36:16;;;;;;;39.50;20.42;;;10.60;99.90;;;;;;5050412;28;20981;-63
2022/11/15 06:38:46;;;;;;;36.92;18.38;;;10.70;99.90;;;;;;5044628;28;20112;-63
2022/11/15 06:41:12;;;;;;;39.33;19.38;;;10.70;99.90;;;;;;5045817;28;20040;-63
2022/11/15 06:43:39;;;;;;;40.45;19.85;;;10.70;99.90;;;;;;5033176;28;20033;-63
2022/11/15 06:46:05;;;;;;;35.58;18.23;;;10.70;99.90;;;;;;5045715;28;20513;-63
2022/11/15 06:48:33;;;;;;;39.17;19.88;;;10.70;99.90;;;;;;5025865;28;20092;-63
2022/11/15 06:51:00;;;;;;;37.15;19.42;;;10.70;99.90;;;;;;5043422;28;20033;-63
2022/11/15 06:53:27;;;;;;;35.40;19.23;;;10.70;99.90;;;;;;5044927;28;20033;-63
2022/11/15 06:55:52;;;;;;;37.92;20.35;;;10.70;99.90;;;;;;5045264;28;20112;-63
2022/11/15 06:58:18;;;;;;;35.08;18.73;;;10.80;99.90;;;;;;5035150;28;20125;-63
2022/11/15 07:00:44;;;;;;;34.45;19.15;;;10.80;99.90;;;;;;5044700;28;20080;-63
2022/11/15 07:03:10;;;;;;;34.60;19.65;;;10.80;99.90;;;;;;5043852;28;20056;-63
2022/11/15 07:05:36;;;;;;;32.97;19.33;;;10.80;99.90;;;;;;5046453;28;20037;-63
2022/11/15 07:08:02;;;;;;;32.88;18.77;;;10.80;99.90;;;;;;5040989;28;20044;-64
2022/11/15 07:10:28;;;;;;;34.58;19.17;;;10.80;99.90;;;;;;5043121;28;20039;-63
2022/11/15 07:12:54;;;;;;;34.20;19.17;;;10.80;99.90;;;;;;5038722;28;20030;-64
2022/11/15 07:15:23;;;;;;;40.08;20.13;;;10.90;99.90;;;;;;5017712;28;20041;-63
2022/11/15 07:17:49;;;;;;;34.92;19.85;;;10.90;99.90;;;;;;5043013;28;20048;-63
2022/11/15 07:20:15;;;;;;;34.42;19.65;;;10.90;99.90;;;;;;5042970;28;20041;-63
2022/11/15 07:22:41;;;;;;;35.55;18.60;;;10.90;99.90;;;;;;5040239;28;20037;-62
2022/11/15 07:25:07;;;;;;;32.47;18.88;;;10.90;99.90;;;;;;5031391;28;20080;-63
2022/11/15 07:27:33;;;;;;;34.97;19.10;;;10.90;99.90;;;;;;5040419;28;20045;-62
2022/11/15 07:29:59;;;;;;;29.00;17.98;;;10.90;99.90;;;;;;5028052;28;20533;-62
2022/11/15 07:32:25;;;;;;;32.92;18.88;;;10.90;99.90;;;;;;5042853;28;20397;-62
2022/11/15 07:34:50;;;;;;;30.85;17.52;;;11.00;99.90;;;;;;5036861;28;20039;-62
2022/11/15 07:37:16;;;;;;;31.33;18.90;;;11.00;99.90;;;;;;5038787;28;20045;-62
2022/11/15 07:39:43;;;;;;;34.30;18.70;;;11.00;99.90;;;;;;5038820;28;20918;-62
2022/11/15 07:44:52;;;;;;;33.13;18.50;;;11.10;99.90;;;;;;5024893;28;20048;-62
2022/11/15 07:47:18;;;;;;;31.45;18.67;;;11.00;99.90;;;;;;5046306;28;20460;-63
2022/11/15 07:49:45;;;;;;;35.42;21.50;;;11.10;99.90;;;;;;5047265;28;20391;-64
2022/11/15 07:52:11;;;;;;;36.67;20.48;;;11.10;99.90;;;;;;5035192;28;20045;-63
2022/11/15 07:54:37;;;;;;;33.97;18.75;;;11.10;99.90;;;;;;5047561;28;20037;-63
2022/11/15 07:57:03;;;;;;;33.40;19.05;;;11.10;99.90;;;;;;5041119;28;20403;-63
2022/11/15 07:59:28;;;;;;;33.60;18.23;;;11.10;99.90;;;;;;5043055;28;20064;-63
2022/11/15 08:01:54;;;;;;;32.63;19.27;;;11.20;99.90;;;;;;5048760;28;20446;-63
2022/11/15 08:04:19;;;;;;;33.22;19.50;;;11.20;99.90;;;;;;5040403;28;20044;-64
2022/11/15 08:06:45;;;;;;;36.70;19.85;;;11.20;99.90;;;;;;5041287;28;20506;-64
2022/11/15 08:09:11;;;;;;;33.80;18.92;;;11.20;99.90;;;;;;5045635;28;20076;-64
2022/11/15 08:11:37;;;;;;;34.13;18.80;;;11.30;99.90;;;;;;5050368;28;20037;-63
2022/11/15 08:14:02;;;;;;;32.88;19.05;;;11.30;99.90;;;;;;5045504;28;20048;-64
2022/11/15 08:16:28;;;;;;;32.28;19.25;;;11.40;99.90;;;;;;5041945;28;20041;-63
2022/11/15 08:18:53;;;;;;;34.58;19.58;;;11.30;99.90;;;;;;5038274;28;20036;-64
2022/11/15 08:21:20;;;;;;;32.72;19.00;;;11.30;99.90;;;;;;5045007;28;20071;-64
2022/11/15 08:23:46;;;;;;;34.85;19.88;;;11.30;99.90;;;;;;5053659;28;20037;-64
2022/11/15 08:26:12;;;;;;;31.20;20.10;;;11.30;99.90;;;;;;5053856;28;20553;-64
2022/11/15 08:28:38;;;;;;;30.88;19.60;;;11.40;99.90;;;;;;5054401;28;20040;-64
2022/11/15 08:31:04;;;;;;;32.00;20.50;;;11.40;99.90;;;;;;5049761;28;20128;-63
2022/11/15 08:33:31;;;;;;;37.95;20.75;;;11.40;99.90;;;;;;5052107;28;20037;-63
2022/11/15 08:35:58;;;;;;;35.17;20.38;;;11.40;99.90;;;;;;5033886;28;20124;-63
2022/11/15 08:38:24;;;;;;;35.80;21.02;;;11.40;99.90;;;;;;5016097;28;21110;-64
2022/11/15 08:40:59;;;;;;;33.22;20.40;;;11.40;99.90;;;;;;5046701;28;20060;-63
2022/11/15 08:43:25;;;;;;;29.73;18.48;;;11.40;99.90;;;;;;5046795;28;20045;-63
2022/11/15 08:45:50;;;;;;;34.28;19.52;;;11.50;99.90;;;;;;5038056;28;20037;-63
2022/11/15 08:48:16;;;;;;;35.63;19.98;;;11.50;99.90;;;;;;5044483;28;20554;-63
2022/11/15 08:50:43;;;;;;;33.25;19.55;;;11.40;99.90;;;;;;5041980;28;20108;-63
2022/11/15 08:53:10;;;;;;;29.95;18.15;;;11.50;99.90;;;;;;5033489;28;20063;-63
2022/11/15 08:55:40;;;;;;;31.52;18.70;;;11.40;99.90;;;;;;5037362;28;20029;-63
2022/11/15 08:58:06;;;;;;;30.85;17.70;;;11.40;99.90;;;;;;5052499;28;20120;-63
2022/11/15 09:00:33;;;;;;;32.63;19.45;;;11.40;99.90;;;;;;5018929;28;20129;-63
2022/11/15 09:02:59;;;;;;;29.55;17.98;;;11.50;99.90;;;;;;5046395;28;20061;-63
2022/11/15 09:05:26;;;;;;;30.48;17.95;;;11.50;99.90;;;;;;5043163;28;20092;-63
2022/11/15 09:07:54;;;;;;;30.48;17.73;;;11.50;99.90;;;;;;5049257;28;20055;-63
2022/11/15 09:10:21;;;;;;;26.65;17.35;;;11.50;99.90;;;;;;5031907;28;20486;-63
2022/11/15 09:12:50;;;;;;;30.05;17.27;;;11.60;99.90;;;;;;5031839;28;20037;-63
2022/11/15 09:15:16;;;;;;;23.70;15.75;;;11.60;99.90;;;;;;5044905;28;20033;-63
2022/11/15 09:17:42;;;;;;;25.27;15.63;;;11.60;99.90;;;;;;5043015;28;20391;-63
2022/11/15 09:20:08;;;;;;;23.90;15.40;;;11.60;99.90;;;;;;5043868;28;20032;-64
2022/11/15 09:22:34;;;;;;;25.95;15.88;;;11.60;99.90;;;;;;5027240;28;20051;-63
2022/11/15 09:25:00;;;;;;;23.98;15.77;;;11.60;99.90;;;;;;5045537;28;20496;-64
2022/11/15 09:27:29;;;;;;;22.25;15.80;;;11.70;99.90;;;;;;5047773;28;20128;-64
2022/11/15 09:29:55;;;;;;;25.90;16.50;;;11.70;99.90;;;;;;5021368;28;20132;-63
2022/11/15 09:32:22;;;;;;;24.13;15.60;;;11.70;99.90;;;;;;5047755;28;20128;-64
2022/11/15 09:34:49;;;;;;;24.45;16.08;;;11.70;99.90;;;;;;5035952;28;20034;-64
2022/11/15 09:37:15;;;;;;;25.45;16.45;;;11.70;99.90;;;;;;5020899;28;20041;-63
2022/11/15 09:39:40;;;;;;;26.45;16.52;;;11.70;99.90;;;;;;5037812;28;20127;-64
2022/11/15 09:42:43;;;;;;;28.20;17.58;;;11.70;99.90;;;;;;5046902;28;20040;-64
2022/11/15 09:45:26;;;;;;;26.25;16.92;;;11.70;99.90;;;;;;5042392;28;20538;-63
2022/11/15 09:48:10;;;;;;;26.02;17.90;;;11.70;99.90;;;;;;5041260;28;20057;-63
2022/11/15 09:50:39;;;;;;;28.50;18.27;;;11.70;99.90;;;;;;5040687;28;20520;-63
2022/11/15 09:53:11;;;;;;;29.40;18.48;;;11.70;99.90;;;;;;5036041;28;20032;-63
2022/11/15 09:55:50;;;;;;;32.42;19.95;;;11.70;99.90;;;;;;5046911;28;20053;-63
2022/11/15 09:58:29;;;;;;;33.72;21.10;;;11.70;99.90;;;;;;5042283;28;20048;-63
2022/11/15 10:00:57;;;;;;;30.65;20.25;;;11.70;99.90;;;;;;5052665;28;20036;-64
2022/11/15 10:03:28;;;;;;;31.08;19.88;;;11.80;99.90;;;;;;5023102;28;20116;-64
2022/11/15 10:06:00;;;;;;;39.00;21.20;;;11.70;99.90;;;;;;5041621;28;20514;-64
2022/11/15 10:08:40;;;;;;;31.30;19.73;;;11.70;99.90;;;;;;5045959;28;20041;-64
2022/11/15 10:11:08;;;;;;;32.75;21.05;;;11.70;99.90;;;;;;5024087;28;20036;-64
2022/11/15 10:13:37;;;;;;;32.42;20.05;;;11.60;99.90;;;;;;5041495;28;20068;-63
2022/11/15 10:16:36;;;;;;;30.65;19.45;;;11.70;99.90;;;;;;5044354;28;20038;-63
2022/11/15 10:19:30;;;;;;;32.97;21.05;;;11.70;99.90;;;;;;5038491;28;20052;-64
2022/11/15 10:22:28;;;;;;;35.70;20.45;;;11.70;99.90;;;;;;5044833;28;20045;-64
2022/11/15 10:25:03;;;;;;;38.03;21.90;;;11.70;99.90;;;;;;5017435;28;20066;-63
2022/11/15 10:27:29;;;;;;;35.38;22.02;;;11.70;99.90;;;;;;5046189;28;20135;-63
2022/11/15 10:29:55;;;;;;;38.30;23.17;;;11.80;99.90;;;;;;5018740;28;20044;-64
2022/11/15 10:32:21;;;;;;;38.78;23.60;;;11.90;99.90;;;;;;5044037;28;20030;-64
2022/11/15 10:34:48;;;;;;;35.97;21.63;;;11.90;99.90;;;;;;5040308;28;20466;-64
2022/11/15 10:37:14;;;;;;;31.85;19.95;;;11.90;99.90;;;;;;5020067;28;20494;-63
2022/11/15 10:39:39;;;;;;;29.75;19.38;;;11.90;99.90;;;;;;5045646;28;20043;-63
2022/11/15 10:42:16;;;;;;;27.67;17.50;;;12.00;99.90;;;;;;5043837;28;20116;-63
2022/11/15 10:44:44;;;;;;;25.90;16.13;;;12.00;99.90;;;;;;5018903;28;20041;-64
2022/11/15 10:47:25;;;;;;;24.30;14.77;;;12.00;99.90;;;;;;5042547;28;20042;-63
2022/11/15 10:49:57;;;;;;;21.92;12.70;;;12.10;99.90;;;;;;5041863;28;20098;-64
2022/11/15 10:52:24;;;;;;;22.25;13.98;;;12.10;99.90;;;;;;5020398;28;20088;-63
2022/11/15 10:54:55;;;;;;;18.23;12.25;;;12.10;99.90;;;;;;5020829;28;20091;-64
2022/11/15 10:57:28;;;;;;;19.50;12.63;;;12.10;99.90;;;;;;5023241;28;20080;-64
2022/11/15 11:00:18;;;;;;;19.30;11.02;;;12.10;99.90;;;;;;5040616;28;20071;-63
2022/11/15 11:02:56;;;;;;;18.98;11.43;;;12.20;99.90;;;;;;5037545;28;20041;-64
2022/11/15 11:06:03;;;;;;;17.92;10.57;;;12.30;99.90;;;;;;5025843;28;20124;-63
2022/11/15 11:08:28;;;;;;;14.25;9.68;;;12.40;99.90;;;;;;5032999;28;20060;-64
2022/11/15 11:10:55;;;;;;;17.40;9.88;;;12.30;99.90;;;;;;5028933;28;20033;-63
2022/11/15 11:13:26;;;;;;;14.80;8.82;;;12.40;99.90;;;;;;5045421;28;20036;-64
2022/11/15 11:16:13;;;;;;;12.23;7.88;;;12.50;99.90;;;;;;5047839;28;20116;-64
2022/11/15 11:18:54;;;;;;;12.38;8.27;;;12.50;99.90;;;;;;5042204;28;20048;-64
2022/11/15 11:21:37;;;;;;;10.32;6.72;;;12.50;99.90;;;;;;5051467;28;20072;-64
2022/11/15 11:24:08;;;;;;;11.35;7.20;;;12.50;99.90;;;;;;5051297;28;20041;-64
2022/11/15 11:26:46;;;;;;;11.93;6.67;;;12.40;99.90;;;;;;5050761;28;20597;-63
2022/11/15 11:29:45;;;;;;;8.30;6.25;;;12.50;99.90;;;;;;5050609;28;20131;-64
2022/11/15 11:33:06;;;;;;;9.55;5.63;;;12.50;99.90;;;;;;5044846;28;20514;-64
2022/11/15 11:35:51;;;;;;;11.52;6.45;;;12.50;99.90;;;;;;5010001;28;20105;-65
2022/11/15 11:38:53;;;;;;;9.90;5.85;;;12.50;99.90;;;;;;5032323;28;20045;-64
2022/11/15 11:41:19;;;;;;;11.07;6.10;;;12.50;99.90;;;;;;5026891;28;20056;-64
2022/11/15 11:43:50;;;;;;;9.73;6.28;;;12.50;99.90;;;;;;5042180;28;20067;-64
2022/11/15 11:46:40;;;;;;;9.52;6.07;;;12.60;99.90;;;;;;5042517;28;20052;-64
2022/11/15 11:49:12;;;;;;;10.68;5.93;;;12.60;99.90;;;;;;5020691;28;20098;-64
2022/11/15 11:51:59;;;;;;;7.97;5.82;;;12.60;99.90;;;;;;5032384;28;20040;-64
2022/11/15 11:54:42;;;;;;;10.82;5.82;;;12.60;99.90;;;;;;5043914;28;20116;-64
2022/11/15 11:57:52;;;;;;;11.05;6.20;;;12.50;99.90;;;;;;5038665;28;20513;-64
2022/11/15 12:00:27;;;;;;;7.82;5.25;;;12.50;99.90;;;;;;4984288;28;20040;-64
2022/11/15 12:02:58;;;;;;;10.85;5.55;;;12.40;99.90;;;;;;4987048;28;20646;-64
2022/11/15 12:05:48;;;;;;;12.38;6.10;;;12.40;99.90;;;;;;5014536;28;20128;-64
2022/11/15 12:08:30;;;;;;;10.27;5.38;;;12.50;99.90;;;;;;5040655;28;20149;-64
2022/11/15 12:11:26;;;;;;;9.73;5.72;;;12.60;99.90;;;;;;5045323;28;20045;-64
2022/11/15 12:13:58;;;;;;;8.90;5.07;;;12.60;99.90;;;;;;5043944;28;20032;-64
2022/11/15 12:16:30;;;;;;;7.40;4.80;;;12.70;99.90;;;;;;5049029;28;20506;-64
2022/11/15 12:19:00;;;;;;;6.07;4.22;;;12.70;99.90;;;;;;5051482;28;20033;-64
2022/11/15 12:21:34;;;;;;;6.53;3.50;;;12.70;99.90;;;;;;5047876;28;20037;-64
2022/11/15 12:24:05;;;;;;;6.50;4.15;;;12.70;99.90;;;;;;5023033;28;20147;-64
2022/11/15 12:26:41;;;;;;;5.80;3.85;;;12.80;99.90;;;;;;5050468;28;20517;-64
2022/11/15 12:29:32;;;;;;;6.47;3.92;;;12.80;99.90;;;;;;5035823;28;20411;-64
2022/11/15 12:31:59;;;;;;;4.10;3.45;;;12.90;99.90;;;;;;5048529;28;20037;-64
2022/11/15 12:34:28;;;;;;;5.50;3.47;;;12.90;99.90;;;;;;5034381;28;20058;-64
2022/11/15 12:36:54;;;;;;;8.50;4.00;;;12.90;99.90;;;;;;5039648;28;20037;-64
2022/11/15 12:39:32;;;;;;;5.72;3.38;;;12.90;99.90;;;;;;5033018;28;20051;-64
2022/11/15 12:41:57;;;;;;;6.88;3.70;;;13.00;99.90;;;;;;5046507;28;20045;-64
2022/11/15 12:44:32;;;;;;;8.18;3.80;;;13.00;99.90;;;;;;5037671;28;20048;-64
2022/11/15 12:47:02;;;;;;;7.10;3.33;;;13.10;99.90;;;;;;5040351;28;20087;-64
2022/11/15 12:49:27;;;;;;;7.82;3.85;;;13.10;99.90;;;;;;5050175;28;20086;-64
2022/11/15 12:51:59;;;;;;;5.03;3.00;;;13.00;99.90;;;;;;5047447;28;20033;-64
2022/11/15 12:54:24;;;;;;;4.13;3.28;;;13.10;99.90;;;;;;5039356;28;20048;-64
2022/11/15 12:57:08;;;;;;;5.03;2.95;;;13.10;99.90;;;;;;5047911;28;20426;-64
2022/11/15 12:59:55;;;;;;;7.18;3.58;;;13.10;99.90;;;;;;5047178;28;20040;-64
2022/11/15 13:02:25;;;;;;;8.05;3.05;;;13.20;99.90;;;;;;5047532;28;20049;-64
2022/11/15 13:04:53;;;;;;;3.70;2.53;;;13.30;99.90;;;;;;5051470;28;20041;-64
2022/11/15 13:07:34;;;;;;;3.88;2.28;;;13.30;99.90;;;;;;5050748;28;20041;-64
2022/11/15 13:10:01;;;;;;;3.50;2.30;;;13.30;99.90;;;;;;5046108;28;20029;-64
2022/11/15 13:12:26;;;;;;;4.55;2.40;;;13.30;99.90;;;;;;5054058;28;20689;-64